sensor_id;sensor_type;location;lat;lon;timestamp;P1;durP1;ratioP1;P2;durP2;ratioP2
34242;SDS011;20504;43.214;27.920;2023-02-15T00:01:40;26.20;;;14.90;;
34242;SDS011;20504;43.214;27.920;2023-02-15T00:04:07;29.73;;;16.45;;
34242;SDS011;20504;43.214;27.920;2023-02-15T00:06:33;25.90;;;15.55;;
34242;SDS011;20504;43.214;27.920;2023-02-15T00:08:59;22.40;;;13.90;;
34242;SDS011;20504;43.214;27.920;2023-02-15T00:11:25;25.80;;;15.13;;
34242;SDS011;20504;43.214;27.920;2023-02-15T00:14:07;25.13;;;14.93;;
34242;SDS011;20504;43.214;27.920;2023-02-15T00:16:37;20.88;;;13.13;;
34242;SDS011;20504;43.214;27.920;2023-02-15T00:19:03;23.85;;;14.50;;
34242;SDS011;20504;43.214;27.920;2023-02-15T00:21:30;21.65;;;14.85;;
34242;SDS011;20504;43.214;27.920;2023-02-15T00:23:58;23.25;;;14.27;;
34242;SDS011;20504;43.214;27.920;2023-02-15T00:26:25;24.55;;;14.50;;
34242;SDS011;20504;43.214;27.920;2023-02-15T00:28:51;22.88;;;13.95;;
34242;SDS011;20504;43.214;27.920;2023-02-15T00:31:17;22.20;;;13.85;;
34242;SDS011;20504;43.214;27.920;2023-02-15T00:33:42;23.33;;;13.57;;
34242;SDS011;20504;43.214;27.920;2023-02-15T00:36:08;23.20;;;14.10;;
34242;SDS011;20504;43.214;27.920;2023-02-15T00:38:35;27.80;;;15.02;;
34242;SDS011;20504;43.214;27.920;2023-02-15T00:41:02;22.52;;;13.68;;
34242;SDS011;20504;43.214;27.920;2023-02-15T00:43:30;23.42;;;14.55;;
34242;SDS011;20504;43.214;27.920;2023-02-15T00:45:57;21.73;;;14.32;;
34242;SDS011;20504;43.214;27.920;2023-02-15T00:48:23;27.27;;;14.30;;
34242;SDS011;20504;43.214;27.920;2023-02-15T00:50:49;23.58;;;13.55;;
34242;SDS011;20504;43.214;27.920;2023-02-15T00:53:19;25.88;;;13.98;;
34242;SDS011;20504;43.214;27.920;2023-02-15T00:55:45;21.05;;;12.93;;
34242;SDS011;20504;43.214;27.920;2023-02-15T00:58:11;21.95;;;13.32;;
34242;SDS011;20504;43.214;27.920;2023-02-15T01:00:37;24.63;;;13.57;;
34242;SDS011;20504;43.214;27.920;2023-02-15T01:03:04;22.65;;;13.88;;
34242;SDS011;20504;43.214;27.920;2023-02-15T01:05:30;22.40;;;13.87;;
34242;SDS011;20504;43.214;27.920;2023-02-15T01:07:57;24.88;;;14.50;;
34242;SDS011;20504;43.214;27.920;2023-02-15T01:10:23;20.40;;;14.23;;
34242;SDS011;20504;43.214;27.920;2023-02-15T01:12:49;26.07;;;14.60;;
34242;SDS011;20504;43.214;27.920;2023-02-15T01:15:15;24.42;;;14.27;;
34242;SDS011;20504;43.214;27.920;2023-02-15T01:17:41;31.70;;;14.30;;
34242;SDS011;20504;43.214;27.920;2023-02-15T01:20:07;23.75;;;13.85;;
34242;SDS011;20504;43.214;27.920;2023-02-15T01:22:33;22.27;;;14.37;;
34242;SDS011;20504;43.214;27.920;2023-02-15T01:24:58;23.07;;;13.93;;
34242;SDS011;20504;43.214;27.920;2023-02-15T01:27:24;22.30;;;13.73;;
34242;SDS011;20504;43.214;27.920;2023-02-15T01:29:49;25.37;;;14.73;;
34242;SDS011;20504;43.214;27.920;2023-02-15T01:32:15;27.37;;;15.23;;
34242;SDS011;20504;43.214;27.920;2023-02-15T01:34:40;23.93;;;14.70;;
34242;SDS011;20504;43.214;27.920;2023-02-15T01:37:06;28.13;;;14.30;;
34242;SDS011;20504;43.214;27.920;2023-02-15T01:39:31;26.13;;;14.43;;
34242;SDS011;20504;43.214;27.920;2023-02-15T01:41:56;23.73;;;14.33;;
34242;SDS011;20504;43.214;27.920;2023-02-15T01:50:17;25.80;;;14.57;;
34242;SDS011;20504;43.214;27.920;2023-02-15T01:52:58;27.63;;;14.30;;
34242;SDS011;20504;43.214;27.920;2023-02-15T01:55:30;25.02;;;15.15;;
34242;SDS011;20504;43.214;27.920;2023-02-15T01:58:01;24.58;;;14.57;;
34242;SDS011;20504;43.214;27.920;2023-02-15T02:00:27;25.90;;;14.80;;
34242;SDS011;20504;43.214;27.920;2023-02-15T02:02:53;26.60;;;15.13;;
34242;SDS011;20504;43.214;27.920;2023-02-15T02:05:21;27.58;;;15.38;;
34242;SDS011;20504;43.214;27.920;2023-02-15T02:07:47;28.77;;;16.07;;
34242;SDS011;20504;43.214;27.920;2023-02-15T02:10:17;31.98;;;19.48;;
34242;SDS011;20504;43.214;27.920;2023-02-15T02:12:46;34.95;;;20.50;;
34242;SDS011;20504;43.214;27.920;2023-02-15T02:15:13;33.28;;;18.40;;
34242;SDS011;20504;43.214;27.920;2023-02-15T02:20:37;30.15;;;17.25;;
34242;SDS011;20504;43.214;27.920;2023-02-15T02:31:21;24.27;;;14.50;;
34242;SDS011;20504;43.214;27.920;2023-02-15T02:36:40;27.17;;;15.00;;
34242;SDS011;20504;43.214;27.920;2023-02-15T02:39:43;26.25;;;14.80;;
34242;SDS011;20504;43.214;27.920;2023-02-15T02:48:05;34.47;;;19.02;;
34242;SDS011;20504;43.214;27.920;2023-02-15T02:50:35;33.53;;;21.02;;
34242;SDS011;20504;43.214;27.920;2023-02-15T02:53:04;35.42;;;20.05;;
34242;SDS011;20504;43.214;27.920;2023-02-15T02:55:30;40.03;;;22.37;;
34242;SDS011;20504;43.214;27.920;2023-02-15T02:58:31;33.55;;;19.45;;
34242;SDS011;20504;43.214;27.920;2023-02-15T03:00:57;33.47;;;19.67;;
34242;SDS011;20504;43.214;27.920;2023-02-15T03:06:03;30.15;;;17.92;;
34242;SDS011;20504;43.214;27.920;2023-02-15T03:08:41;30.27;;;17.98;;
34242;SDS011;20504;43.214;27.920;2023-02-15T03:11:09;32.58;;;18.25;;
34242;SDS011;20504;43.214;27.920;2023-02-15T03:13:36;31.33;;;17.65;;
34242;SDS011;20504;43.214;27.920;2023-02-15T03:16:02;28.88;;;17.60;;
34242;SDS011;20504;43.214;27.920;2023-02-15T03:18:54;26.52;;;15.75;;
34242;SDS011;20504;43.214;27.920;2023-02-15T03:21:45;27.75;;;15.50;;
34242;SDS011;20504;43.214;27.920;2023-02-15T03:24:22;29.63;;;15.57;;
34242;SDS011;20504;43.214;27.920;2023-02-15T03:26:51;25.08;;;14.05;;
34242;SDS011;20504;43.214;27.920;2023-02-15T03:29:20;26.95;;;13.45;;
34242;SDS011;20504;43.214;27.920;2023-02-15T03:31:50;25.45;;;13.88;;
34242;SDS011;20504;43.214;27.920;2023-02-15T03:34:19;25.83;;;12.70;;
34242;SDS011;20504;43.214;27.920;2023-02-15T03:42:26;23.48;;;12.95;;
34242;SDS011;20504;43.214;27.920;2023-02-15T03:45:01;23.42;;;14.35;;
34242;SDS011;20504;43.214;27.920;2023-02-15T03:47:34;24.08;;;14.05;;
34242;SDS011;20504;43.214;27.920;2023-02-15T03:53:01;21.43;;;12.90;;
34242;SDS011;20504;43.214;27.920;2023-02-15T03:55:30;27.35;;;13.80;;
34242;SDS011;20504;43.214;27.920;2023-02-15T03:57:55;17.87;;;10.30;;
34242;SDS011;20504;43.214;27.920;2023-02-15T04:00:41;25.15;;;13.48;;
34242;SDS011;20504;43.214;27.920;2023-02-15T04:03:33;26.65;;;13.82;;
34242;SDS011;20504;43.214;27.920;2023-02-15T04:06:04;23.70;;;13.65;;
34242;SDS011;20504;43.214;27.920;2023-02-15T04:08:29;24.63;;;14.40;;
34242;SDS011;20504;43.214;27.920;2023-02-15T04:11:14;24.30;;;14.15;;
34242;SDS011;20504;43.214;27.920;2023-02-15T04:13:39;25.40;;;14.43;;
34242;SDS011;20504;43.214;27.920;2023-02-15T04:16:05;23.47;;;14.23;;
34242;SDS011;20504;43.214;27.920;2023-02-15T04:18:37;26.10;;;13.73;;
34242;SDS011;20504;43.214;27.920;2023-02-15T04:21:23;24.50;;;13.73;;
34242;SDS011;20504;43.214;27.920;2023-02-15T04:24:08;24.95;;;13.52;;
34242;SDS011;20504;43.214;27.920;2023-02-15T04:26:53;26.25;;;14.10;;
34242;SDS011;20504;43.214;27.920;2023-02-15T04:29:22;23.20;;;13.53;;
34242;SDS011;20504;43.214;27.920;2023-02-15T04:31:49;24.45;;;14.65;;
34242;SDS011;20504;43.214;27.920;2023-02-15T04:34:15;27.13;;;14.48;;
34242;SDS011;20504;43.214;27.920;2023-02-15T04:36:41;26.03;;;13.77;;
34242;SDS011;20504;43.214;27.920;2023-02-15T04:39:06;30.67;;;15.17;;
34242;SDS011;20504;43.214;27.920;2023-02-15T04:41:32;25.10;;;14.90;;
34242;SDS011;20504;43.214;27.920;2023-02-15T04:43:59;27.83;;;15.90;;
34242;SDS011;20504;43.214;27.920;2023-02-15T04:48:51;30.65;;;15.00;;
34242;SDS011;20504;43.214;27.920;2023-02-15T04:51:17;25.70;;;14.63;;
34242;SDS011;20504;43.214;27.920;2023-02-15T04:53:42;27.27;;;14.80;;
34242;SDS011;20504;43.214;27.920;2023-02-15T04:56:07;31.93;;;17.03;;
34242;SDS011;20504;43.214;27.920;2023-02-15T04:58:33;28.43;;;14.33;;
34242;SDS011;20504;43.214;27.920;2023-02-15T05:01:00;23.80;;;14.50;;
34242;SDS011;20504;43.214;27.920;2023-02-15T05:03:25;25.40;;;15.00;;
34242;SDS011;20504;43.214;27.920;2023-02-15T05:05:51;18.97;;;10.17;;
34242;SDS011;20504;43.214;27.920;2023-02-15T05:08:16;27.80;;;14.80;;
34242;SDS011;20504;43.214;27.920;2023-02-15T05:10:42;26.80;;;14.10;;
34242;SDS011;20504;43.214;27.920;2023-02-15T05:13:07;20.93;;;12.83;;
34242;SDS011;20504;43.214;27.920;2023-02-15T05:15:33;27.53;;;14.23;;
34242;SDS011;20504;43.214;27.920;2023-02-15T05:17:58;25.73;;;13.97;;
34242;SDS011;20504;43.214;27.920;2023-02-15T05:20:24;25.37;;;14.50;;
34242;SDS011;20504;43.214;27.920;2023-02-15T05:22:52;19.20;;;10.67;;
34242;SDS011;20504;43.214;27.920;2023-02-15T05:25:18;24.10;;;13.32;;
34242;SDS011;20504;43.214;27.920;2023-02-15T05:28:02;28.58;;;14.15;;
34242;SDS011;20504;43.214;27.920;2023-02-15T05:30:49;23.20;;;13.82;;
34242;SDS011;20504;43.214;27.920;2023-02-15T05:33:24;23.83;;;13.70;;
34242;SDS011;20504;43.214;27.920;2023-02-15T05:35:50;27.77;;;14.73;;
34242;SDS011;20504;43.214;27.920;2023-02-15T05:38:16;24.43;;;13.80;;
34242;SDS011;20504;43.214;27.920;2023-02-15T05:40:41;26.67;;;14.73;;
34242;SDS011;20504;43.214;27.920;2023-02-15T05:43:07;25.60;;;13.90;;
34242;SDS011;20504;43.214;27.920;2023-02-15T05:45:32;26.73;;;12.47;;
34242;SDS011;20504;43.214;27.920;2023-02-15T05:47:58;24.03;;;14.07;;
34242;SDS011;20504;43.214;27.920;2023-02-15T05:50:23;25.60;;;13.67;;
34242;SDS011;20504;43.214;27.920;2023-02-15T05:52:49;24.63;;;14.32;;
34242;SDS011;20504;43.214;27.920;2023-02-15T05:55:15;23.30;;;12.80;;
34242;SDS011;20504;43.214;27.920;2023-02-15T05:57:41;23.73;;;13.33;;
34242;SDS011;20504;43.214;27.920;2023-02-15T06:00:07;24.20;;;13.67;;
34242;SDS011;20504;43.214;27.920;2023-02-15T06:02:35;23.30;;;13.13;;
34242;SDS011;20504;43.214;27.920;2023-02-15T06:07:27;26.95;;;13.52;;
34242;SDS011;20504;43.214;27.920;2023-02-15T06:09:52;26.47;;;15.10;;
34242;SDS011;20504;43.214;27.920;2023-02-15T06:12:18;23.30;;;14.30;;
34242;SDS011;20504;43.214;27.920;2023-02-15T06:14:43;24.50;;;13.07;;
34242;SDS011;20504;43.214;27.920;2023-02-15T06:17:09;22.63;;;13.93;;
34242;SDS011;20504;43.214;27.920;2023-02-15T06:19:34;26.23;;;13.33;;
34242;SDS011;20504;43.214;27.920;2023-02-15T06:22:00;22.17;;;12.27;;
34242;SDS011;20504;43.214;27.920;2023-02-15T06:24:25;24.10;;;13.77;;
34242;SDS011;20504;43.214;27.920;2023-02-15T06:26:51;24.03;;;14.23;;
34242;SDS011;20504;43.214;27.920;2023-02-15T06:29:16;24.50;;;14.07;;
34242;SDS011;20504;43.214;27.920;2023-02-15T06:31:42;31.10;;;14.13;;
34242;SDS011;20504;43.214;27.920;2023-02-15T06:34:07;31.30;;;14.03;;
34242;SDS011;20504;43.214;27.920;2023-02-15T06:36:33;29.63;;;14.07;;
34242;SDS011;20504;43.214;27.920;2023-02-15T06:38:58;23.00;;;12.97;;
34242;SDS011;20504;43.214;27.920;2023-02-15T06:41:24;29.07;;;14.93;;
34242;SDS011;20504;43.214;27.920;2023-02-15T06:43:49;17.87;;;10.40;;
34242;SDS011;20504;43.214;27.920;2023-02-15T06:46:15;23.13;;;12.73;;
34242;SDS011;20504;43.214;27.920;2023-02-15T06:48:41;25.07;;;13.17;;
34242;SDS011;20504;43.214;27.920;2023-02-15T06:51:06;18.00;;;9.97;;
34242;SDS011;20504;43.214;27.920;2023-02-15T06:53:32;28.20;;;13.00;;
34242;SDS011;20504;43.214;27.920;2023-02-15T06:56:05;25.17;;;13.20;;
34242;SDS011;20504;43.214;27.920;2023-02-15T06:58:34;22.50;;;12.90;;
34242;SDS011;20504;43.214;27.920;2023-02-15T07:01:03;22.77;;;13.02;;
34242;SDS011;20504;43.214;27.920;2023-02-15T07:03:29;26.60;;;12.40;;
34242;SDS011;20504;43.214;27.920;2023-02-15T07:05:58;22.15;;;11.93;;
34242;SDS011;20504;43.214;27.920;2023-02-15T07:08:26;21.98;;;13.10;;
34242;SDS011;20504;43.214;27.920;2023-02-15T07:10:52;23.67;;;12.25;;
34242;SDS011;20504;43.214;27.920;2023-02-15T07:15:45;22.15;;;11.32;;
34242;SDS011;20504;43.214;27.920;2023-02-15T07:18:12;22.80;;;11.80;;
34242;SDS011;20504;43.214;27.920;2023-02-15T07:20:38;20.55;;;11.88;;
34242;SDS011;20504;43.214;27.920;2023-02-15T07:23:07;20.48;;;11.25;;
34242;SDS011;20504;43.214;27.920;2023-02-15T07:25:33;20.08;;;11.35;;
34242;SDS011;20504;43.214;27.920;2023-02-15T07:28:00;17.73;;;10.80;;
34242;SDS011;20504;43.214;27.920;2023-02-15T07:30:27;19.63;;;12.10;;
34242;SDS011;20504;43.214;27.920;2023-02-15T07:32:57;24.63;;;12.90;;
34242;SDS011;20504;43.214;27.920;2023-02-15T07:35:52;17.80;;;11.32;;
34242;SDS011;20504;43.214;27.920;2023-02-15T07:40:44;18.77;;;11.50;;
34242;SDS011;20504;43.214;27.920;2023-02-15T07:43:10;20.80;;;11.70;;
34242;SDS011;20504;43.214;27.920;2023-02-15T07:45:36;22.40;;;11.85;;
34242;SDS011;20504;43.214;27.920;2023-02-15T07:48:02;18.73;;;11.40;;
34242;SDS011;20504;43.214;27.920;2023-02-15T07:50:28;19.27;;;10.27;;
34242;SDS011;20504;43.214;27.920;2023-02-15T07:52:54;21.63;;;11.17;;
34242;SDS011;20504;43.214;27.920;2023-02-15T07:55:20;20.63;;;10.87;;
34242;SDS011;20504;43.214;27.920;2023-02-15T07:57:46;18.87;;;11.40;;
34242;SDS011;20504;43.214;27.920;2023-02-15T08:00:14;23.38;;;11.45;;
34242;SDS011;20504;43.214;27.920;2023-02-15T08:02:41;18.13;;;11.02;;
34242;SDS011;20504;43.214;27.920;2023-02-15T08:05:07;15.80;;;8.97;;
34242;SDS011;20504;43.214;27.920;2023-02-15T08:07:33;21.40;;;11.67;;
34242;SDS011;20504;43.214;27.920;2023-02-15T08:09:58;18.53;;;10.27;;
34242;SDS011;20504;43.214;27.920;2023-02-15T08:12:27;20.52;;;11.35;;
34242;SDS011;20504;43.214;27.920;2023-02-15T08:14:52;16.20;;;10.67;;
34242;SDS011;20504;43.214;27.920;2023-02-15T08:17:18;18.90;;;10.47;;
34242;SDS011;20504;43.214;27.920;2023-02-15T08:19:43;23.83;;;14.97;;
34242;SDS011;20504;43.214;27.920;2023-02-15T08:22:11;22.23;;;10.43;;
34242;SDS011;20504;43.214;27.920;2023-02-15T08:24:38;24.38;;;11.68;;
34242;SDS011;20504;43.214;27.920;2023-02-15T08:27:05;19.63;;;11.03;;
34242;SDS011;20504;43.214;27.920;2023-02-15T08:29:33;20.08;;;11.30;;
34242;SDS011;20504;43.214;27.920;2023-02-15T08:32:01;19.40;;;10.90;;
34242;SDS011;20504;43.214;27.920;2023-02-15T08:34:33;19.92;;;10.63;;
34242;SDS011;20504;43.214;27.920;2023-02-15T08:37:00;20.70;;;10.57;;
34242;SDS011;20504;43.214;27.920;2023-02-15T08:39:26;15.53;;;10.57;;
34242;SDS011;20504;43.214;27.920;2023-02-15T08:41:52;19.20;;;10.47;;
34242;SDS011;20504;43.214;27.920;2023-02-15T08:44:18;19.17;;;10.40;;
34242;SDS011;20504;43.214;27.920;2023-02-15T08:46:45;16.80;;;9.90;;
34242;SDS011;20504;43.214;27.920;2023-02-15T08:49:12;19.95;;;10.77;;
34242;SDS011;20504;43.214;27.920;2023-02-15T08:51:42;18.33;;;10.68;;
34242;SDS011;20504;43.214;27.920;2023-02-15T08:54:08;21.87;;;12.27;;
34242;SDS011;20504;43.214;27.920;2023-02-15T08:56:39;18.38;;;11.07;;
34242;SDS011;20504;43.214;27.920;2023-02-15T08:59:06;16.85;;;10.82;;
34242;SDS011;20504;43.214;27.920;2023-02-15T09:01:36;18.42;;;10.48;;
34242;SDS011;20504;43.214;27.920;2023-02-15T09:04:02;16.43;;;11.53;;
34242;SDS011;20504;43.214;27.920;2023-02-15T09:06:30;17.60;;;10.52;;
34242;SDS011;20504;43.214;27.920;2023-02-15T09:08:56;24.00;;;11.38;;
34242;SDS011;20504;43.214;27.920;2023-02-15T09:11:23;17.27;;;11.77;;
34242;SDS011;20504;43.214;27.920;2023-02-15T09:13:56;19.23;;;10.82;;
34242;SDS011;20504;43.214;27.920;2023-02-15T09:16:26;16.55;;;9.32;;
34242;SDS011;20504;43.214;27.920;2023-02-15T09:18:54;18.70;;;10.35;;
34242;SDS011;20504;43.214;27.920;2023-02-15T09:21:21;22.57;;;9.67;;
34242;SDS011;20504;43.214;27.920;2023-02-15T09:23:48;15.98;;;9.65;;
34242;SDS011;20504;43.214;27.920;2023-02-15T09:26:16;20.98;;;10.23;;
34242;SDS011;20504;43.214;27.920;2023-02-15T09:28:44;16.30;;;8.95;;
34242;SDS011;20504;43.214;27.920;2023-02-15T09:33:47;15.40;;;9.60;;
34242;SDS011;20504;43.214;27.920;2023-02-15T09:38:43;16.88;;;10.40;;
34242;SDS011;20504;43.214;27.920;2023-02-15T09:58:02;13.93;;;9.27;;
34242;SDS011;20504;43.214;27.920;2023-02-15T10:03:11;17.30;;;9.57;;
34242;SDS011;20504;43.214;27.920;2023-02-15T10:16:40;17.83;;;10.40;;
34242;SDS011;20504;43.214;27.920;2023-02-15T10:25:28;18.97;;;10.77;;
34242;SDS011;20504;43.214;27.920;2023-02-15T10:28:08;16.75;;;10.10;;
34242;SDS011;20504;43.214;27.920;2023-02-15T10:33:16;15.60;;;10.60;;
34242;SDS011;20504;43.214;27.920;2023-02-15T10:47:08;19.92;;;11.35;;
34242;SDS011;20504;43.214;27.920;2023-02-15T10:49:55;20.48;;;11.18;;
34242;SDS011;20504;43.214;27.920;2023-02-15T10:52:29;19.48;;;12.30;;
34242;SDS011;20504;43.214;27.920;2023-02-15T11:01:19;21.77;;;11.50;;
34242;SDS011;20504;43.214;27.920;2023-02-15T11:03:58;16.58;;;11.18;;
34242;SDS011;20504;43.214;27.920;2023-02-15T11:06:36;17.40;;;11.07;;
34242;SDS011;20504;43.214;27.920;2023-02-15T11:09:10;21.20;;;11.40;;
34242;SDS011;20504;43.214;27.920;2023-02-15T11:11:40;20.88;;;11.30;;
34242;SDS011;20504;43.214;27.920;2023-02-15T11:14:13;16.65;;;11.02;;
34242;SDS011;20504;43.214;27.920;2023-02-15T11:16:46;20.48;;;12.00;;
34242;SDS011;20504;43.214;27.920;2023-02-15T11:21:53;22.98;;;12.25;;
34242;SDS011;20504;43.214;27.920;2023-02-15T11:24:24;17.90;;;11.40;;
34242;SDS011;20504;43.214;27.920;2023-02-15T11:29:59;21.58;;;12.57;;
34242;SDS011;20504;43.214;27.920;2023-02-15T11:32:33;22.92;;;12.52;;
34242;SDS011;20504;43.214;27.920;2023-02-15T11:40:46;20.77;;;12.88;;
34242;SDS011;20504;43.214;27.920;2023-02-15T11:43:16;20.52;;;13.38;;
34242;SDS011;20504;43.214;27.920;2023-02-15T11:45:49;35.75;;;22.00;;
34242;SDS011;20504;43.214;27.920;2023-02-15T11:48:15;24.40;;;15.40;;
34242;SDS011;20504;43.214;27.920;2023-02-15T11:50:42;21.30;;;13.75;;
34242;SDS011;20504;43.214;27.920;2023-02-15T11:53:20;18.40;;;12.23;;
34242;SDS011;20504;43.214;27.920;2023-02-15T11:55:49;25.35;;;13.18;;
34242;SDS011;20504;43.214;27.920;2023-02-15T11:58:23;19.85;;;12.40;;
34242;SDS011;20504;43.214;27.920;2023-02-15T12:01:08;20.08;;;12.45;;
34242;SDS011;20504;43.214;27.920;2023-02-15T12:03:45;22.35;;;12.43;;
34242;SDS011;20504;43.214;27.920;2023-02-15T12:06:46;22.88;;;12.88;;
34242;SDS011;20504;43.214;27.920;2023-02-15T12:11:46;16.63;;;12.07;;
34242;SDS011;20504;43.214;27.920;2023-02-15T12:14:12;21.03;;;14.10;;
34242;SDS011;20504;43.214;27.920;2023-02-15T12:16:42;17.50;;;11.90;;
34242;SDS011;20504;43.214;27.920;2023-02-15T12:21:54;19.98;;;11.50;;
34242;SDS011;20504;43.214;27.920;2023-02-15T12:24:34;19.83;;;12.32;;
34242;SDS011;20504;43.214;27.920;2023-02-15T12:27:13;21.08;;;12.15;;
34242;SDS011;20504;43.214;27.920;2023-02-15T12:29:52;16.50;;;11.65;;
34242;SDS011;20504;43.214;27.920;2023-02-15T12:32:24;21.48;;;13.18;;
34242;SDS011;20504;43.214;27.920;2023-02-15T12:34:50;22.25;;;13.20;;
34242;SDS011;20504;43.214;27.920;2023-02-15T12:37:23;22.75;;;14.43;;
34242;SDS011;20504;43.214;27.920;2023-02-15T12:39:56;23.15;;;12.38;;
34242;SDS011;20504;43.214;27.920;2023-02-15T12:42:24;20.92;;;12.88;;
34242;SDS011;20504;43.214;27.920;2023-02-15T12:44:55;21.35;;;13.40;;
34242;SDS011;20504;43.214;27.920;2023-02-15T12:47:23;30.70;;;13.88;;
34242;SDS011;20504;43.214;27.920;2023-02-15T12:50:24;21.25;;;13.68;;
34242;SDS011;20504;43.214;27.920;2023-02-15T12:53:02;21.13;;;12.82;;
34242;SDS011;20504;43.214;27.920;2023-02-15T12:55:53;31.83;;;15.30;;
34242;SDS011;20504;43.214;27.920;2023-02-15T12:58:21;24.30;;;14.60;;
34242;SDS011;20504;43.214;27.920;2023-02-15T13:01:01;20.60;;;14.18;;
34242;SDS011;20504;43.214;27.920;2023-02-15T13:06:31;22.40;;;13.48;;
34242;SDS011;20504;43.214;27.920;2023-02-15T13:09:08;22.60;;;14.55;;
34242;SDS011;20504;43.214;27.920;2023-02-15T13:11:42;23.65;;;15.95;;
34242;SDS011;20504;43.214;27.920;2023-02-15T13:16:40;20.77;;;13.38;;
34242;SDS011;20504;43.214;27.920;2023-02-15T13:19:16;27.58;;;15.57;;
34242;SDS011;20504;43.214;27.920;2023-02-15T13:21:45;21.83;;;14.00;;
34242;SDS011;20504;43.214;27.920;2023-02-15T13:24:25;21.83;;;14.25;;
34242;SDS011;20504;43.214;27.920;2023-02-15T13:26:55;22.05;;;14.43;;
34242;SDS011;20504;43.214;27.920;2023-02-15T13:29:24;21.40;;;14.57;;
34242;SDS011;20504;43.214;27.920;2023-02-15T13:31:53;21.08;;;13.88;;
34242;SDS011;20504;43.214;27.920;2023-02-15T13:45:19;20.92;;;14.23;;
34242;SDS011;20504;43.214;27.920;2023-02-15T13:58:32;22.75;;;14.45;;
34242;SDS011;20504;43.214;27.920;2023-02-15T14:17:14;23.60;;;15.13;;
34242;SDS011;20504;43.214;27.920;2023-02-15T14:19:54;24.88;;;14.48;;
34242;SDS011;20504;43.214;27.920;2023-02-15T14:22:40;21.70;;;14.85;;
34242;SDS011;20504;43.214;27.920;2023-02-15T14:25:23;19.42;;;14.95;;
34242;SDS011;20504;43.214;27.920;2023-02-15T14:27:56;22.80;;;15.95;;
34242;SDS011;20504;43.214;27.920;2023-02-15T14:30:27;25.15;;;16.58;;
34242;SDS011;20504;43.214;27.920;2023-02-15T14:33:01;24.88;;;16.25;;
34242;SDS011;20504;43.214;27.920;2023-02-15T14:35:32;27.48;;;16.63;;
34242;SDS011;20504;43.214;27.920;2023-02-15T14:43:30;28.10;;;14.80;;
34242;SDS011;20504;43.214;27.920;2023-02-15T14:46:37;28.38;;;14.30;;
34242;SDS011;20504;43.214;27.920;2023-02-15T14:49:25;25.23;;;15.45;;
34242;SDS011;20504;43.214;27.920;2023-02-15T14:51:56;20.02;;;13.55;;
34242;SDS011;20504;43.214;27.920;2023-02-15T15:07:54;20.95;;;12.98;;
34242;SDS011;20504;43.214;27.920;2023-02-15T15:15:56;31.95;;;16.60;;
34242;SDS011;20504;43.214;27.920;2023-02-15T15:18:43;22.08;;;14.73;;
34242;SDS011;20504;43.214;27.920;2023-02-15T15:33:04;28.95;;;15.65;;
34242;SDS011;20504;43.214;27.920;2023-02-15T15:41:41;32.67;;;19.88;;
34242;SDS011;20504;43.214;27.920;2023-02-15T15:49:30;39.40;;;21.60;;
34242;SDS011;20504;43.214;27.920;2023-02-15T15:52:01;39.47;;;22.35;;
34242;SDS011;20504;43.214;27.920;2023-02-15T15:54:33;43.00;;;23.65;;
34242;SDS011;20504;43.214;27.920;2023-02-15T15:57:03;47.17;;;25.20;;
34242;SDS011;20504;43.214;27.920;2023-02-15T15:59:32;52.88;;;27.23;;
34242;SDS011;20504;43.214;27.920;2023-02-15T16:02:06;45.10;;;24.35;;
34242;SDS011;20504;43.214;27.920;2023-02-15T16:12:19;57.30;;;32.25;;
34242;SDS011;20504;43.214;27.920;2023-02-15T16:14:45;59.77;;;32.90;;
34242;SDS011;20504;43.214;27.920;2023-02-15T16:17:29;79.45;;;37.97;;
34242;SDS011;20504;43.214;27.920;2023-02-15T16:22:43;65.15;;;36.55;;
34242;SDS011;20504;43.214;27.920;2023-02-15T16:28:10;58.40;;;29.88;;
34242;SDS011;20504;43.214;27.920;2023-02-15T16:30:38;52.78;;;31.10;;
34242;SDS011;20504;43.214;27.920;2023-02-15T16:33:08;53.47;;;29.98;;
34242;SDS011;20504;43.214;27.920;2023-02-15T16:35:53;60.55;;;30.45;;
34242;SDS011;20504;43.214;27.920;2023-02-15T16:41:08;54.28;;;29.17;;
34242;SDS011;20504;43.214;27.920;2023-02-15T16:43:36;50.67;;;27.83;;
34242;SDS011;20504;43.214;27.920;2023-02-15T16:46:05;58.47;;;28.02;;
34242;SDS011;20504;43.214;27.920;2023-02-15T16:48:37;51.28;;;25.98;;
34242;SDS011;20504;43.214;27.920;2023-02-15T16:51:06;53.65;;;30.80;;
34242;SDS011;20504;43.214;27.920;2023-02-15T16:53:33;51.38;;;27.23;;
34242;SDS011;20504;43.214;27.920;2023-02-15T16:56:00;49.83;;;27.53;;
34242;SDS011;20504;43.214;27.920;2023-02-15T16:58:30;51.38;;;25.85;;
34242;SDS011;20504;43.214;27.920;2023-02-15T17:01:02;63.35;;;29.60;;
34242;SDS011;20504;43.214;27.920;2023-02-15T17:03:31;58.47;;;31.02;;
34242;SDS011;20504;43.214;27.920;2023-02-15T17:05:58;40.77;;;22.40;;
34242;SDS011;20504;43.214;27.920;2023-02-15T17:08:29;62.35;;;31.17;;
34242;SDS011;20504;43.214;27.920;2023-02-15T17:13:27;69.77;;;30.50;;
34242;SDS011;20504;43.214;27.920;2023-02-15T17:18:26;48.78;;;26.92;;
34242;SDS011;20504;43.214;27.920;2023-02-15T17:20:56;52.03;;;28.63;;
34242;SDS011;20504;43.214;27.920;2023-02-15T17:23:31;50.22;;;26.83;;
34242;SDS011;20504;43.214;27.920;2023-02-15T17:25:59;53.17;;;25.67;;
34242;SDS011;20504;43.214;27.920;2023-02-15T17:28:36;47.50;;;24.73;;
34242;SDS011;20504;43.214;27.920;2023-02-15T17:31:02;43.23;;;24.50;;
34242;SDS011;20504;43.214;27.920;2023-02-15T17:36:13;49.73;;;25.37;;
34242;SDS011;20504;43.214;27.920;2023-02-15T17:41:22;45.60;;;25.60;;
34242;SDS011;20504;43.214;27.920;2023-02-15T17:43:52;48.08;;;25.08;;
34242;SDS011;20504;43.214;27.920;2023-02-15T17:46:17;49.63;;;24.27;;
34242;SDS011;20504;43.214;27.920;2023-02-15T17:48:47;45.60;;;24.50;;
34242;SDS011;20504;43.214;27.920;2023-02-15T17:51:14;41.20;;;24.20;;
34242;SDS011;20504;43.214;27.920;2023-02-15T17:53:41;47.15;;;25.02;;
34242;SDS011;20504;43.214;27.920;2023-02-15T17:56:30;48.72;;;24.88;;
34242;SDS011;20504;43.214;27.920;2023-02-15T18:01:22;46.90;;;22.48;;
34242;SDS011;20504;43.214;27.920;2023-02-15T18:04:12;46.88;;;25.45;;
34242;SDS011;20504;43.214;27.920;2023-02-15T18:06:57;55.25;;;28.33;;
34242;SDS011;20504;43.214;27.920;2023-02-15T18:09:41;54.47;;;26.38;;
34242;SDS011;20504;43.214;27.920;2023-02-15T18:12:32;51.63;;;29.15;;
34242;SDS011;20504;43.214;27.920;2023-02-15T18:15:00;47.22;;;25.50;;
34242;SDS011;20504;43.214;27.920;2023-02-15T18:17:37;59.58;;;31.30;;
34242;SDS011;20504;43.214;27.920;2023-02-15T18:20:06;67.88;;;34.50;;
34242;SDS011;20504;43.214;27.920;2023-02-15T18:22:42;77.70;;;37.75;;
34242;SDS011;20504;43.214;27.920;2023-02-15T18:25:11;74.65;;;36.78;;
34242;SDS011;20504;43.214;27.920;2023-02-15T18:27:38;69.90;;;35.33;;
34242;SDS011;20504;43.214;27.920;2023-02-15T18:30:04;64.93;;;34.00;;
34242;SDS011;20504;43.214;27.920;2023-02-15T18:32:31;58.63;;;30.13;;